createdAt,value
2024-05-09T00:01:53.801Z,102274.28
2024-05-09T00:04:19.830Z,102272.97
2024-05-09T00:06:45.045Z,102267.59
2024-05-09T00:09:10.211Z,102266.72
2024-05-09T00:11:38.182Z,102269.66
2024-05-09T00:14:03.414Z,102273.44
2024-05-09T00:16:28.722Z,102267.38
2024-05-09T00:18:54.225Z,102270.75
2024-05-09T00:21:20.175Z,102268.06
2024-05-09T00:23:45.471Z,102265.59
2024-05-09T00:26:11.002Z,102260.00
2024-05-09T00:28:38.864Z,102257.91
2024-05-09T00:31:05.376Z,102260.00
2024-05-09T00:33:30.763Z,102253.03
2024-05-09T00:35:56.103Z,102260.56
2024-05-09T00:38:21.415Z,102258.03
2024-05-09T00:40:46.735Z,102249.53
2024-05-09T00:43:13.544Z,102257.41
2024-05-09T00:45:42.672Z,102260.47
2024-05-09T00:48:10.656Z,102257.97
2024-05-09T00:50:38.546Z,102258.97
2024-05-09T00:53:04.291Z,102258.97
2024-05-09T00:55:29.578Z,102257.31
2024-05-09T00:57:55.501Z,102255.97
2024-05-09T01:00:27.290Z,102258.81
2024-05-09T01:03:03.675Z,102260.78
2024-05-09T01:05:29.138Z,102255.19
2024-05-09T01:07:54.417Z,102258.19
2024-05-09T01:10:27.610Z,102259.06
2024-05-09T01:12:57.321Z,102265.38
2024-05-09T01:15:22.549Z,102264.72
2024-05-09T01:17:48.029Z,102265.94
2024-05-09T01:20:20.301Z,102272.22
2024-05-09T01:22:54.153Z,102278.38
2024-05-09T01:25:21.980Z,102270.63
2024-05-09T01:27:47.196Z,102274.25
2024-05-09T01:30:17.313Z,102270.63
2024-05-09T01:32:46.723Z,102262.34
2024-05-09T01:35:12.095Z,102263.44
2024-05-09T01:37:37.318Z,102264.78
2024-05-09T01:40:03.519Z,102268.41
2024-05-09T01:42:31.415Z,102271.88
2024-05-09T01:44:56.591Z,102261.44
2024-05-09T01:47:22.005Z,102259.00
2024-05-09T01:49:47.296Z,102259.75
2024-05-09T01:52:12.567Z,102266.09
2024-05-09T01:54:37.721Z,102255.69
2024-05-09T01:57:02.970Z,102260.50
2024-05-09T01:59:30.856Z,102260.00
2024-05-09T02:01:57.752Z,102259.34
2024-05-09T02:04:23.437Z,102262.38
2024-05-09T02:06:48.936Z,102258.81
2024-05-09T02:09:14.131Z,102260.16
2024-05-09T02:11:45.591Z,102260.31
2024-05-09T02:14:11.412Z,102258.50
2024-05-09T02:16:39.258Z,102266.00
2024-05-09T02:19:04.724Z,102261.81
2024-05-09T02:21:34.211Z,102263.72
2024-05-09T02:23:59.483Z,102258.56
2024-05-09T02:26:24.726Z,102258.69
2024-05-09T02:28:50.257Z,102256.16
2024-05-09T02:31:16.007Z,102249.78
2024-05-09T02:33:43.995Z,102257.13
2024-05-09T02:36:10.494Z,102253.69
2024-05-09T02:38:33.296Z,102264.44
2024-05-09T02:40:58.603Z,102252.34
2024-05-09T02:43:21.214Z,102260.28
2024-05-09T02:45:46.387Z,102258.72
2024-05-09T02:48:11.396Z,102257.91
2024-05-09T02:50:40.894Z,102255.31
2024-05-09T02:53:03.890Z,102254.66
2024-05-09T02:55:29.127Z,102252.22
2024-05-09T02:57:51.741Z,102256.25
2024-05-09T03:00:22.822Z,102251.91
2024-05-09T03:02:49.269Z,102256.38
2024-05-09T03:05:14.735Z,102260.69
2024-05-09T03:07:43.041Z,102256.56
2024-05-09T03:10:18.190Z,102250.41
2024-05-09T03:12:47.737Z,102246.81
2024-05-09T03:15:10.290Z,102261.06
2024-05-09T03:17:35.771Z,102262.13
2024-05-09T03:19:59.065Z,102264.13
2024-05-09T03:22:24.382Z,102259.31
2024-05-09T03:24:49.594Z,102252.22
2024-05-09T03:27:14.809Z,102262.09
2024-05-09T03:29:37.720Z,102254.75
2024-05-09T03:32:03.545Z,102259.44
2024-05-09T03:34:26.212Z,102263.94
2024-05-09T03:36:51.594Z,102265.75
2024-05-09T03:39:16.798Z,102260.25
2024-05-09T03:41:42.193Z,102257.72
2024-05-09T03:44:07.829Z,102259.44
2024-05-09T03:46:30.452Z,102258.84
2024-05-09T03:48:56.677Z,102261.44
2024-05-09T03:51:19.466Z,102259.75
2024-05-09T03:53:44.836Z,102257.72
2024-05-09T03:56:08.473Z,102258.38
2024-05-09T03:58:36.540Z,102262.34
2024-05-09T04:00:59.289Z,102264.81
2024-05-09T04:03:24.874Z,102274.53
2024-05-09T04:05:48.306Z,102267.34
2024-05-09T04:08:13.674Z,102268.06
2024-05-09T04:10:36.313Z,102274.16
2024-05-09T04:13:01.800Z,102268.75
2024-05-09T04:15:27.543Z,102270.13
2024-05-09T04:17:53.942Z,102263.13
2024-05-09T04:20:28.690Z,102264.56
2024-05-09T04:23:01.754Z,102263.59
2024-05-09T04:25:24.446Z,102263.59
2024-05-09T04:27:49.631Z,102266.81
2024-05-09T04:30:18.968Z,102268.41
2024-05-09T04:32:54.064Z,102268.75
2024-05-09T04:35:18.684Z,102263.19
2024-05-09T04:37:44.022Z,102272.34
2024-05-09T04:40:14.181Z,102282.66
2024-05-09T04:42:45.838Z,102271.84
2024-05-09T04:45:08.709Z,102268.81
2024-05-09T04:47:34.071Z,102273.44
2024-05-09T04:49:59.389Z,102279.59
2024-05-09T04:52:24.620Z,102280.63
2024-05-09T04:54:47.181Z,102273.41
2024-05-09T04:57:12.370Z,102274.84
2024-05-09T04:59:36.549Z,102275.25
2024-05-09T05:02:01.956Z,102277.03
2024-05-09T05:04:25.103Z,102278.03
2024-05-09T05:06:53.025Z,102273.94
2024-05-09T05:09:15.615Z,102275.22
2024-05-09T05:11:41.014Z,102278.06
2024-05-09T05:14:03.678Z,102273.97
2024-05-09T05:16:29.551Z,102274.28
2024-05-09T05:18:52.420Z,102276.41
2024-05-09T05:21:19.376Z,102278.38
2024-05-09T05:23:44.876Z,102276.63
2024-05-09T05:26:10.338Z,102274.75
2024-05-09T05:28:33.009Z,102280.75
2024-05-09T05:30:58.320Z,102272.81
2024-05-09T05:33:22.542Z,102275.50
2024-05-09T05:35:48.438Z,102280.28
2024-05-09T05:38:14.117Z,102284.75
2024-05-09T05:40:40.632Z,102279.91
2024-05-09T05:43:06.703Z,102279.13
2024-05-09T05:45:29.378Z,102275.13
2024-05-09T05:47:56.663Z,102280.13
2024-05-09T05:50:27.382Z,102280.81
2024-05-09T05:52:58.357Z,102284.47
2024-05-09T05:55:20.964Z,102273.53
2024-05-09T05:57:49.804Z,102279.63
2024-05-09T06:00:21.537Z,102273.25
2024-05-09T06:02:54.047Z,102279.38
2024-05-09T06:05:17.522Z,102279.00
2024-05-09T06:07:42.808Z,102274.44
2024-05-09T06:10:11.446Z,102277.16
2024-05-09T06:12:39.742Z,102268.72
2024-05-09T06:15:06.495Z,102277.47
2024-05-09T06:17:31.985Z,102272.88
2024-05-09T06:19:54.781Z,102271.91
2024-05-09T06:22:20.206Z,102265.34
2024-05-09T06:24:43.274Z,102267.81
2024-05-09T06:27:08.870Z,102265.34
2024-05-09T06:29:31.687Z,102262.81
2024-05-09T06:32:00.339Z,102263.31
2024-05-09T06:34:23.417Z,102255.34
2024-05-09T06:36:48.983Z,102259.16
2024-05-09T06:39:11.646Z,102265.94
2024-05-09T06:41:37.006Z,102258.66
2024-05-09T06:43:59.722Z,102256.53
2024-05-09T06:46:25.555Z,102257.03
2024-05-09T06:48:51.087Z,102258.94
2024-05-09T06:51:16.855Z,102258.22
2024-05-09T06:53:40.728Z,102255.38
2024-05-09T06:56:06.139Z,102260.41
2024-05-09T06:58:28.766Z,102252.47
2024-05-09T07:00:54.080Z,102257.56
2024-05-09T07:03:18.439Z,102250.94
2024-05-09T07:05:49.148Z,102245.63
2024-05-09T07:08:12.895Z,102258.44
2024-05-09T07:10:38.787Z,102250.66
2024-05-09T07:13:01.601Z,102254.38
2024-05-09T07:15:26.865Z,102251.53
2024-05-09T07:17:49.774Z,102241.44
2024-05-09T07:20:23.496Z,102249.25
2024-05-09T07:22:57.431Z,102238.34
2024-05-09T07:25:22.669Z,102243.91
2024-05-09T07:27:45.303Z,102246.44
2024-05-09T07:30:16.656Z,102249.41
2024-05-09T07:32:46.152Z,102241.53
2024-05-09T07:35:11.587Z,102246.25
2024-05-09T07:37:34.297Z,102252.88
2024-05-09T07:40:05.840Z,102245.50
2024-05-09T07:42:30.070Z,102239.38
2024-05-09T07:44:56.910Z,102243.03
2024-05-09T07:48:32.075Z,102237.03
2024-05-09T07:52:22.670Z,102237.63
2024-05-09T07:53:35.281Z,102238.47
2024-05-09T07:55:38.178Z,102233.13
2024-05-09T07:58:00.865Z,102230.53
2024-05-09T08:00:31.093Z,102233.53
2024-05-09T08:02:54.994Z,102229.16
2024-05-09T08:05:20.426Z,102238.47
2024-05-09T08:07:45.311Z,102230.50
2024-05-09T08:10:15.243Z,102224.59
2024-05-09T08:12:43.975Z,102230.50
2024-05-09T08:15:10.195Z,102219.69
2024-05-09T08:17:33.007Z,102224.94
2024-05-09T08:19:58.281Z,102222.63
2024-05-09T08:22:20.971Z,102228.53
2024-05-09T08:24:46.999Z,102224.69
2024-05-09T08:27:10.202Z,102229.03
2024-05-09T08:29:38.105Z,102225.59
2024-05-09T08:32:00.779Z,102216.44
2024-05-09T08:34:26.739Z,102214.38
2024-05-09T08:36:50.026Z,102211.06
2024-05-09T08:39:15.246Z,102211.25
2024-05-09T08:41:42.188Z,102209.03
2024-05-09T08:44:07.481Z,102207.00
2024-05-09T08:46:34.197Z,102211.06
2024-05-09T08:49:00.485Z,102201.66
2024-05-09T08:51:23.344Z,102198.34
2024-05-09T08:53:48.674Z,102197.41
2024-05-09T08:56:12.357Z,102204.50
2024-05-09T08:58:40.421Z,102211.00
2024-05-09T09:01:05.321Z,102217.91
2024-05-09T09:03:36.564Z,102214.75
2024-05-09T09:06:03.010Z,102204.03
2024-05-09T09:08:29.427Z,102200.47
2024-05-09T09:10:54.235Z,102192.84
2024-05-09T09:13:19.513Z,102194.25
2024-05-09T09:15:47.699Z,102197.31
2024-05-09T09:18:18.271Z,102201.75
2024-05-09T09:20:44.432Z,102194.69
2024-05-09T09:23:10.646Z,102196.44
2024-05-09T09:25:34.119Z,102199.47
2024-05-09T09:28:01.519Z,102195.44
2024-05-09T09:30:34.572Z,102191.72
2024-05-09T09:33:03.064Z,102188.72
2024-05-09T09:35:25.724Z,102196.59
2024-05-09T09:37:54.617Z,102205.34
2024-05-09T09:40:22.430Z,102197.53
2024-05-09T09:42:53.105Z,102189.19
2024-05-09T09:45:16.669Z,102186.63
2024-05-09T09:47:44.729Z,102197.66
2024-05-09T09:50:14.227Z,102191.06
2024-05-09T09:52:42.393Z,102185.91
2024-05-09T09:55:11.271Z,102187.22
2024-05-09T09:57:38.476Z,102189.22
2024-05-09T10:00:01.633Z,102184.66
2024-05-09T10:02:37.210Z,102187.00
2024-05-09T10:05:01.297Z,102189.38
2024-05-09T10:07:27.783Z,102176.50
2024-05-09T10:09:55.239Z,102180.50
2024-05-09T10:12:24.216Z,102180.84
2024-05-09T10:14:48.923Z,102175.34
2024-05-09T10:17:14.168Z,102173.59
2024-05-09T10:19:36.909Z,102174.16
2024-05-09T10:22:06.184Z,102180.13
2024-05-09T10:24:30.050Z,102172.69
2024-05-09T10:26:56.654Z,102178.94
2024-05-09T10:29:26.489Z,102181.22
2024-05-09T10:31:49.248Z,102174.56
2024-05-09T10:34:21.119Z,102176.72
2024-05-09T10:36:43.997Z,102165.97
2024-05-09T10:39:09.682Z,102160.41
2024-05-09T10:41:34.019Z,102159.63
2024-05-09T10:43:59.432Z,102158.19
2024-05-09T10:46:25.238Z,102158.09
2024-05-09T10:48:50.774Z,102156.53
2024-05-09T10:51:14.202Z,102157.69
2024-05-09T10:53:45.038Z,102156.25
2024-05-09T10:56:08.133Z,102153.63
2024-05-09T10:58:33.355Z,102146.03
2024-05-09T11:00:58.274Z,102144.84
2024-05-09T11:03:27.063Z,102145.22
2024-05-09T11:05:49.852Z,102136.88
2024-05-09T11:08:15.708Z,102139.63
2024-05-09T11:10:39.596Z,102122.22
2024-05-09T11:13:05.051Z,102129.16
2024-05-09T11:15:39.361Z,102128.84
2024-05-09T11:18:04.705Z,102126.13
2024-05-09T11:20:38.155Z,102117.97
2024-05-09T11:23:06.457Z,102111.31
2024-05-09T11:25:30.516Z,102109.66
2024-05-09T11:27:55.837Z,102106.63
2024-05-09T11:30:26.993Z,102113.56
2024-05-09T11:32:58.302Z,102112.56
2024-05-09T11:35:20.922Z,102108.44
2024-05-09T11:37:49.145Z,102110.13
2024-05-09T11:40:20.998Z,102097.03
2024-05-09T11:42:53.017Z,102107.66
2024-05-09T11:45:16.029Z,102101.97
2024-05-09T11:47:42.600Z,102097.97
2024-05-09T11:50:07.997Z,102097.59
2024-05-09T11:52:35.534Z,102088.31
2024-05-09T11:55:01.883Z,102084.06
2024-05-09T11:57:28.901Z,102083.84
2024-05-09T11:59:51.816Z,102085.72
2024-05-09T12:02:17.298Z,102081.97
2024-05-09T12:04:40.140Z,102079.69
2024-05-09T12:07:06.205Z,102074.97
2024-05-09T12:09:29.516Z,102076.94
2024-05-09T12:11:57.471Z,102070.97
2024-05-09T12:14:20.065Z,102076.66
2024-05-09T12:16:45.414Z,102078.69
2024-05-09T12:19:08.229Z,102074.28
2024-05-09T12:21:33.584Z,102067.84
2024-05-09T12:23:56.750Z,102076.50
2024-05-09T12:26:22.044Z,102067.44
2024-05-09T12:28:47.370Z,102071.47
2024-05-09T12:31:12.669Z,102066.66
2024-05-09T12:33:35.555Z,102063.34
2024-05-09T12:36:01.129Z,102056.31
2024-05-09T12:38:23.873Z,102049.72
2024-05-09T12:40:49.246Z,102047.50
2024-05-09T12:43:12.307Z,102045.69
2024-05-09T12:45:40.646Z,102044.66
2024-05-09T12:48:04.782Z,102037.31
2024-05-09T12:50:33.281Z,102039.44
2024-05-09T12:52:57.207Z,102042.66
2024-05-09T12:55:22.695Z,102035.69
2024-05-09T12:57:45.400Z,102037.41
2024-05-09T13:00:20.701Z,102031.00
2024-05-09T13:02:53.023Z,102035.44
2024-05-09T13:05:18.436Z,102020.00
2024-05-09T13:07:41.551Z,102021.59
2024-05-09T13:10:11.616Z,102009.47
2024-05-09T13:12:36.575Z,102007.16
2024-05-09T13:15:01.800Z,102003.03
2024-05-09T13:17:24.639Z,102004.66
2024-05-09T13:19:52.722Z,102001.34
2024-05-09T13:22:15.453Z,101997.66
2024-05-09T13:24:40.760Z,101999.84
2024-05-09T13:27:03.730Z,101988.56
2024-05-09T13:29:29.069Z,101989.91
2024-05-09T13:31:51.755Z,101986.47
2024-05-09T13:34:17.171Z,101989.63
2024-05-09T13:36:42.561Z,101986.50
2024-05-09T13:39:07.902Z,101979.16
2024-05-09T13:41:30.535Z,101985.84
2024-05-09T13:43:56.080Z,101983.88
2024-05-09T13:46:18.892Z,101976.34
2024-05-09T13:48:44.303Z,101977.78
2024-05-09T13:51:07.105Z,101985.03
2024-05-09T13:53:34.932Z,101974.53
2024-05-09T13:55:57.651Z,101969.63
2024-05-09T13:58:23.624Z,101973.72
2024-05-09T14:00:49.003Z,101973.06
2024-05-09T14:03:15.434Z,101968.03
2024-05-09T14:05:38.987Z,101964.00
2024-05-09T14:08:04.383Z,101968.47
2024-05-09T14:10:31.771Z,101957.72
2024-05-09T14:12:57.766Z,101959.16
2024-05-09T14:15:20.490Z,101959.34
2024-05-09T14:17:45.780Z,101944.66
2024-05-09T14:20:13.966Z,101948.91
2024-05-09T14:22:41.069Z,101942.63
2024-05-09T14:25:03.892Z,101942.75
2024-05-09T14:27:32.401Z,101952.25
2024-05-09T14:29:55.503Z,101940.38
2024-05-09T14:32:20.868Z,101932.13
2024-05-09T14:34:43.625Z,101925.09
2024-05-09T14:37:09.236Z,101932.34
2024-05-09T14:39:32.022Z,101926.50
2024-05-09T14:41:57.226Z,101930.16
2024-05-09T14:44:22.530Z,101935.97
2024-05-09T14:46:47.914Z,101924.56
2024-05-09T14:49:12.426Z,101922.34
2024-05-09T14:51:37.939Z,101924.69
2024-05-09T14:54:00.951Z,101918.09
2024-05-09T14:56:26.287Z,101914.59
2024-05-09T14:58:49.072Z,101918.22
2024-05-09T15:01:17.014Z,101906.81
2024-05-09T15:03:39.862Z,101909.91
2024-05-09T15:06:05.531Z,101913.56
2024-05-09T15:08:28.450Z,101913.50
2024-05-09T15:10:53.807Z,101903.41
2024-05-09T15:13:17.770Z,101896.91
2024-05-09T15:15:43.215Z,101903.50
2024-05-09T15:18:08.956Z,101896.44
2024-05-09T15:20:36.545Z,101901.34
2024-05-09T15:23:00.238Z,101903.66
2024-05-09T15:25:25.565Z,101901.53
2024-05-09T15:27:48.928Z,101888.19
2024-05-09T15:30:18.127Z,101898.56
2024-05-09T15:32:43.410Z,101896.53
2024-05-09T15:35:11.645Z,101898.59
2024-05-09T15:37:34.342Z,101883.56
2024-05-09T15:39:59.667Z,101881.50
2024-05-09T15:42:22.416Z,101881.88
2024-05-09T15:44:52.816Z,101880.31
2024-05-09T15:47:15.544Z,101886.16
2024-05-09T15:49:41.790Z,101883.00
2024-05-09T15:52:07.536Z,101879.50
2024-05-09T15:54:32.870Z,101876.75
2024-05-09T15:56:55.630Z,101878.91
2024-05-09T15:59:21.362Z,101880.34
2024-05-09T16:01:44.320Z,101883.50
2024-05-09T16:04:10.678Z,101882.13
2024-05-09T16:06:34.079Z,101874.75
2024-05-09T16:09:02.158Z,101880.75
2024-05-09T16:11:24.897Z,101875.84
2024-05-09T16:13:50.340Z,101876.41
2024-05-09T16:16:13.167Z,101876.47
2024-05-09T16:18:38.749Z,101881.44
2024-05-09T16:21:01.850Z,101877.00
2024-05-09T16:23:27.223Z,101874.22
2024-05-09T16:25:52.698Z,101875.47
2024-05-09T16:28:18.220Z,101869.69
2024-05-09T16:30:41.304Z,101875.59
2024-05-09T16:33:07.623Z,101872.63
2024-05-09T16:35:30.882Z,101880.00
2024-05-09T16:37:56.167Z,101868.91
2024-05-09T16:40:25.744Z,101869.41
2024-05-09T16:43:02.906Z,101878.66
2024-05-09T16:45:25.519Z,101872.88
2024-05-09T16:47:50.938Z,101871.47
2024-05-09T16:50:19.222Z,101878.00
2024-05-09T16:52:47.957Z,101882.06
2024-05-09T16:55:10.719Z,101884.16
2024-05-09T16:57:36.209Z,101873.91
2024-05-09T17:00:01.469Z,101881.22
2024-05-09T17:02:26.890Z,101874.75
2024-05-09T17:04:49.710Z,101872.53
2024-05-09T17:07:15.207Z,101870.47
2024-05-09T17:09:39.165Z,101873.56
2024-05-09T17:12:05.079Z,101867.72
2024-05-09T17:14:30.310Z,101870.47
2024-05-09T17:16:58.285Z,101870.84
2024-05-09T17:19:21.035Z,101869.13
2024-05-09T17:21:46.405Z,101861.22
2024-05-09T17:24:09.063Z,101860.94
2024-05-09T17:26:34.462Z,101854.41
2024-05-09T17:28:57.319Z,101863.66
2024-05-09T17:31:23.023Z,101857.84
2024-05-09T17:33:48.449Z,101862.78
2024-05-09T17:36:13.869Z,101857.84
2024-05-09T17:38:36.577Z,101861.59
2024-05-09T17:41:01.914Z,101856.13
2024-05-09T17:43:24.836Z,101856.97
2024-05-09T17:45:50.506Z,101861.59
2024-05-09T17:48:13.394Z,101863.63
2024-05-09T17:50:42.197Z,101863.97
2024-05-09T17:53:05.642Z,101872.19
2024-05-09T17:55:31.368Z,101869.59
2024-05-09T17:57:54.292Z,101861.88
2024-05-09T18:00:28.857Z,101863.22
2024-05-09T18:02:59.447Z,101856.41
2024-05-09T18:05:24.933Z,101868.16
2024-05-09T18:07:50.422Z,101863.13
2024-05-09T18:10:22.214Z,101867.72
2024-05-09T18:12:48.665Z,101860.34
2024-05-09T18:15:13.939Z,101872.59
2024-05-09T18:17:36.713Z,101868.47
2024-05-09T18:20:02.171Z,101872.16
2024-05-09T18:22:25.030Z,101871.81
2024-05-09T18:24:53.520Z,101870.75
2024-05-09T18:27:16.319Z,101875.09
2024-05-09T18:29:41.569Z,101870.91
2024-05-09T18:32:05.224Z,101871.13
2024-05-09T18:34:30.629Z,101878.41
2024-05-09T18:36:53.515Z,101872.00
2024-05-09T18:39:19.770Z,101877.72
2024-05-09T18:41:45.119Z,101877.28
2024-05-09T18:44:10.427Z,101879.13
2024-05-09T18:46:33.237Z,101882.78
2024-05-09T18:48:58.578Z,101883.41
2024-05-09T18:51:21.394Z,101884.19
2024-05-09T18:53:46.601Z,101892.28
2024-05-09T18:56:09.496Z,101891.53
2024-05-09T18:58:37.425Z,101890.41
2024-05-09T19:01:01.920Z,101902.06
2024-05-09T19:03:27.615Z,101897.94
2024-05-09T19:05:50.569Z,101905.41
2024-05-09T19:08:16.098Z,101904.28
2024-05-09T19:10:39.915Z,101916.63
2024-05-09T19:13:09.398Z,101912.03
2024-05-09T19:15:38.387Z,101921.03
2024-05-09T19:18:04.205Z,101924.06
2024-05-09T19:20:33.088Z,101916.63
2024-05-09T19:22:59.980Z,101916.06
2024-05-09T19:25:22.631Z,101922.59
2024-05-09T19:27:48.660Z,101919.88
2024-05-09T19:30:21.002Z,101915.44
2024-05-09T19:32:53.846Z,101929.66
2024-05-09T19:35:16.616Z,101924.84
2024-05-09T19:37:43.834Z,101919.56
2024-05-09T19:40:14.696Z,101920.38
2024-05-09T19:42:43.582Z,101923.41
2024-05-09T19:45:07.874Z,101925.09
2024-05-09T19:47:33.288Z,101925.59
2024-05-09T19:49:58.620Z,101928.59
2024-05-09T19:52:24.595Z,101932.13
2024-05-09T19:54:50.054Z,101944.06
2024-05-09T19:57:15.514Z,101939.50
2024-05-09T19:59:38.159Z,101942.00
2024-05-09T20:02:03.589Z,101940.59
2024-05-09T20:04:26.677Z,101942.72
2024-05-09T20:06:55.537Z,101940.25
2024-05-09T20:09:18.236Z,101938.81
2024-05-09T20:11:43.564Z,101940.66
2024-05-09T20:14:06.213Z,101941.91
2024-05-09T20:16:31.507Z,101942.31
2024-05-09T20:18:54.307Z,101943.31
2024-05-09T20:21:19.872Z,101933.13
2024-05-09T20:23:45.104Z,101929.94
2024-05-09T20:26:11.319Z,101935.63
2024-05-09T20:28:34.715Z,101935.28
2024-05-09T20:31:00.206Z,101938.66
2024-05-09T20:33:22.963Z,101932.00
2024-05-09T20:35:48.228Z,101941.38
2024-05-09T20:38:10.861Z,101935.72
2024-05-09T20:40:39.874Z,101938.63
2024-05-09T20:43:03.053Z,101936.53
2024-05-09T20:45:28.709Z,101936.53
2024-05-09T20:47:51.468Z,101939.38
2024-05-09T20:50:27.412Z,101935.34
2024-05-09T20:52:55.752Z,101928.94
2024-05-09T20:55:21.096Z,101932.94
2024-05-09T20:57:46.538Z,101929.50
2024-05-09T21:00:18.621Z,101929.72
2024-05-09T21:02:45.037Z,101938.97
2024-05-09T21:05:10.723Z,101938.97
2024-05-09T21:07:33.515Z,101935.16
2024-05-09T21:09:58.973Z,101923.38
2024-05-09T21:12:21.637Z,101930.88
2024-05-09T21:14:49.580Z,101928.41
2024-05-09T21:17:13.073Z,101927.78
2024-05-09T21:19:38.285Z,101930.63
2024-05-09T21:22:00.983Z,101928.38
2024-05-09T21:24:26.221Z,101941.25
2024-05-09T21:26:48.920Z,101942.00
2024-05-09T21:29:14.219Z,101937.06
2024-05-09T21:31:39.537Z,101931.91
2024-05-09T21:34:05.072Z,101932.03
2024-05-09T21:36:27.806Z,101941.09
2024-05-09T21:38:53.052Z,101932.59
2024-05-09T21:41:15.764Z,101938.25
2024-05-09T21:43:41.449Z,101936.63
2024-05-09T21:46:04.682Z,101943.41
2024-05-09T21:48:33.216Z,101935.63
2024-05-09T21:50:55.991Z,101938.44
2024-05-09T21:53:21.913Z,101939.88
2024-05-09T21:55:45.027Z,101932.88
2024-05-09T21:58:10.937Z,101934.75
2024-05-09T22:00:38.223Z,101927.47
2024-05-09T22:03:04.920Z,101936.66
2024-05-09T22:05:31.151Z,101927.19
2024-05-09T22:07:56.672Z,101928.50
2024-05-09T22:10:26.207Z,101924.19
2024-05-09T22:12:56.337Z,101924.06
2024-05-09T22:15:19.414Z,101927.47
2024-05-09T22:17:45.217Z,101928.22
2024-05-09T22:20:17.837Z,101923.06
2024-05-09T22:22:50.276Z,101928.91
2024-05-09T22:25:13.604Z,101927.28
2024-05-09T22:27:39.653Z,101927.53
2024-05-09T22:30:02.934Z,101936.81
2024-05-09T22:32:29.514Z,101924.31
2024-05-09T22:34:52.615Z,101934.25
2024-05-09T22:37:18.104Z,101930.78
2024-05-09T22:39:43.532Z,101930.28
2024-05-09T22:42:08.866Z,101931.38
2024-05-09T22:44:31.473Z,101929.22
2024-05-09T22:46:56.803Z,101927.28
2024-05-09T22:49:19.508Z,101925.69
2024-05-09T22:51:44.951Z,101925.50
2024-05-09T22:54:07.852Z,101933.59
2024-05-09T22:56:35.945Z,101936.28
2024-05-09T22:58:58.562Z,101934.22
2024-05-09T23:01:26.717Z,101927.88
2024-05-09T23:03:50.229Z,101930.00
2024-05-09T23:06:15.729Z,101922.81
2024-05-09T23:08:38.309Z,101926.47
2024-05-09T23:11:03.933Z,101918.50
2024-05-09T23:13:29.220Z,101922.16
2024-05-09T23:15:54.596Z,101924.22
2024-05-09T23:18:17.340Z,101927.25
2024-05-09T23:20:42.699Z,101925.41
2024-05-09T23:23:05.654Z,101925.72
2024-05-09T23:25:30.995Z,101924.25
2024-05-09T23:27:53.680Z,101923.38
2024-05-09T23:30:29.368Z,101922.50
2024-05-09T23:32:59.834Z,101920.78
2024-05-09T23:35:25.447Z,101919.94
2024-05-09T23:37:48.101Z,101918.19
2024-05-09T23:40:18.654Z,101912.16
2024-05-09T23:42:42.136Z,101915.63
2024-05-09T23:45:08.465Z,101917.56
2024-05-09T23:47:33.942Z,101915.63
2024-05-09T23:49:59.235Z,101912.81
2024-05-09T23:52:22.509Z,101916.47
2024-05-09T23:54:47.822Z,101916.72
2024-05-09T23:57:10.520Z,101918.31
2024-05-09T23:59:35.773Z,101922.09
